createdAt,value
2018-09-17T00:01:46.113Z,96259.00
2018-09-17T00:04:16.406Z,96243.00
2018-09-17T00:06:47.255Z,96241.00
2018-09-17T00:09:17.678Z,96248.00
2018-09-17T00:11:48.011Z,96251.00
2018-09-17T00:14:18.481Z,96236.00
2018-09-17T00:16:49.033Z,96252.00
2018-09-17T00:19:19.382Z,96248.00
2018-09-17T00:21:49.911Z,96252.00
2018-09-17T00:24:20.205Z,96241.00
2018-09-17T00:26:50.453Z,96239.00
2018-09-17T00:29:20.722Z,96234.00
2018-09-17T00:31:50.994Z,96232.00
2018-09-17T00:34:21.310Z,96229.00
2018-09-17T00:36:51.626Z,96235.00
2018-09-17T00:39:21.892Z,96228.00
2018-09-17T00:41:52.133Z,96218.00
2018-09-17T00:44:22.422Z,96233.00
2018-09-17T00:46:52.677Z,96220.00
2018-09-17T00:49:23.028Z,96213.00
2018-09-17T00:51:53.367Z,96155.00
2018-09-17T00:54:23.779Z,96219.00
2018-09-17T00:56:54.085Z,96220.00
2018-09-17T00:59:24.454Z,96219.00
2018-09-17T01:01:54.716Z,96227.00
2018-09-17T01:04:25.059Z,96219.00
2018-09-17T01:06:55.360Z,96219.00
2018-09-17T01:09:30.703Z,96222.00
2018-09-17T01:12:00.969Z,96222.00
2018-09-17T01:14:31.286Z,96223.00
2018-09-17T01:17:01.598Z,96228.00
2018-09-17T01:19:31.885Z,96240.00
2018-09-17T01:22:02.140Z,96220.00
2018-09-17T01:24:32.585Z,96219.00
2018-09-17T01:27:02.846Z,96219.00
2018-09-17T01:29:33.467Z,96219.00
2018-09-17T01:32:03.833Z,96216.00
2018-09-17T01:34:34.209Z,96221.00
2018-09-17T01:37:04.474Z,96221.00
2018-09-17T01:39:34.770Z,96230.00
2018-09-17T01:42:05.111Z,96222.00
2018-09-17T01:44:35.394Z,96218.00
2018-09-17T01:47:05.946Z,96216.00
2018-09-17T01:49:36.229Z,96216.00
2018-09-17T01:52:06.577Z,96212.00
2018-09-17T01:54:36.907Z,96216.00
2018-09-17T01:57:07.271Z,96209.00
2018-09-17T01:59:37.923Z,96208.00
2018-09-17T02:02:09.034Z,96206.00
2018-09-17T02:04:39.794Z,96215.00
2018-09-17T02:07:10.095Z,96210.00
2018-09-17T02:09:41.482Z,96211.00
2018-09-17T02:12:12.778Z,96220.00
2018-09-17T02:14:43.407Z,96211.00
2018-09-17T02:17:13.743Z,96206.00
2018-09-17T02:19:44.059Z,96217.00
2018-09-17T02:22:14.367Z,96219.00
2018-09-17T02:24:44.703Z,96213.00
2018-09-17T02:27:15.089Z,96214.00
2018-09-17T02:29:45.412Z,96207.00
2018-09-17T02:32:15.767Z,96207.00
2018-09-17T02:34:46.082Z,96203.00
2018-09-17T02:37:16.369Z,96204.00
2018-09-17T02:39:46.669Z,96211.00
2018-09-17T02:42:16.938Z,96210.00
2018-09-17T02:44:47.199Z,96205.00
2018-09-17T02:47:17.487Z,96209.00
2018-09-17T02:49:47.767Z,96212.00
2018-09-17T02:52:18.117Z,96205.00
2018-09-17T02:54:48.383Z,96212.00
2018-09-17T02:57:18.681Z,96217.00
2018-09-17T02:59:48.979Z,96221.00
2018-09-17T03:02:19.318Z,96217.00
2018-09-17T03:04:50.063Z,96223.00
2018-09-17T03:07:20.467Z,96222.00
2018-09-17T03:09:50.780Z,96216.00
2018-09-17T03:12:21.210Z,96217.00
2018-09-17T03:14:51.710Z,96217.00
2018-09-17T03:17:22.022Z,96214.00
2018-09-17T03:19:52.405Z,96217.00
2018-09-17T03:22:22.733Z,96215.00
2018-09-17T03:24:54.834Z,96221.00
2018-09-17T03:27:25.679Z,96218.00
2018-09-17T03:29:55.995Z,96221.00
2018-09-17T03:32:26.323Z,96223.00
2018-09-17T03:34:56.678Z,96235.00
2018-09-17T03:37:27.973Z,96230.00
2018-09-17T03:39:59.798Z,96240.00
2018-09-17T03:42:30.458Z,96233.00
2018-09-17T03:45:00.762Z,96239.00
2018-09-17T03:47:31.134Z,96246.00
2018-09-17T03:50:01.903Z,96247.00
2018-09-17T03:52:32.245Z,96242.00
2018-09-17T03:55:02.559Z,96242.00
2018-09-17T03:57:32.875Z,96248.00
2018-09-17T04:00:03.176Z,96253.00
2018-09-17T04:02:33.511Z,96247.00
2018-09-17T04:05:04.151Z,96252.00
2018-09-17T04:07:34.439Z,96254.00
2018-09-17T04:10:05.034Z,96252.00
2018-09-17T04:12:35.606Z,96246.00
2018-09-17T04:15:20.730Z,96259.00
2018-09-17T04:17:54.018Z,96244.00
2018-09-17T04:20:24.282Z,96246.00
2018-09-17T04:22:54.657Z,96250.00
2018-09-17T04:25:24.943Z,96245.00
2018-09-17T04:27:55.246Z,96253.00
2018-09-17T04:30:25.854Z,96256.00
2018-09-17T04:32:56.638Z,96253.00
2018-09-17T04:35:27.055Z,96255.00
2018-09-17T04:37:57.343Z,96247.00
2018-09-17T04:40:27.754Z,96256.00
2018-09-17T04:42:58.098Z,96255.00
2018-09-17T04:45:28.573Z,96259.00
2018-09-17T04:48:06.337Z,96262.00
2018-09-17T04:50:36.782Z,96268.00
2018-09-17T04:53:07.715Z,96276.00
2018-09-17T04:55:38.086Z,96269.00
2018-09-17T04:58:15.165Z,96273.00
2018-09-17T05:00:45.511Z,96266.00
2018-09-17T05:03:15.811Z,96267.00
2018-09-17T05:05:46.112Z,96264.00
2018-09-17T05:08:17.118Z,96262.00
2018-09-17T05:10:47.456Z,96267.00
2018-09-17T05:13:17.891Z,96265.00
2018-09-17T05:15:48.163Z,96266.00
2018-09-17T05:18:18.542Z,96263.00
2018-09-17T05:20:50.679Z,96264.00
2018-09-17T05:23:20.994Z,96266.00
2018-09-17T05:25:51.940Z,96269.00
2018-09-17T05:28:22.689Z,96269.00
2018-09-17T05:30:52.998Z,96272.00
2018-09-17T05:33:23.620Z,96276.00
2018-09-17T05:35:54.025Z,96274.00
2018-09-17T05:38:24.878Z,96269.00
2018-09-17T05:40:55.253Z,96275.00
2018-09-17T05:43:25.566Z,96278.00
2018-09-17T05:45:56.002Z,96280.00
2018-09-17T05:48:26.315Z,96282.00
2018-09-17T05:50:56.645Z,96292.00
2018-09-17T05:53:26.909Z,96280.00
2018-09-17T05:55:57.182Z,96245.00
2018-09-17T05:58:27.453Z,96280.00
2018-09-17T06:00:57.799Z,96281.00
2018-09-17T06:03:28.103Z,96277.00
2018-09-17T06:05:58.425Z,96273.00
2018-09-17T06:08:28.747Z,96276.00
2018-09-17T06:10:59.092Z,96274.00
2018-09-17T06:13:41.431Z,96272.00
2018-09-17T06:16:25.403Z,96277.00
2018-09-17T06:18:55.931Z,96278.00
2018-09-17T06:21:26.499Z,96275.00
2018-09-17T06:23:57.313Z,96278.00
2018-09-17T06:26:28.072Z,96284.00
2018-09-17T06:28:58.611Z,96279.00
2018-09-17T06:31:29.264Z,96276.00
2018-09-17T06:34:00.840Z,96277.00
2018-09-17T06:36:31.428Z,96276.00
2018-09-17T06:39:01.722Z,96271.00
2018-09-17T06:41:32.090Z,96270.00
2018-09-17T06:44:02.575Z,96269.00
2018-09-17T06:46:32.874Z,96268.00
2018-09-17T06:49:03.288Z,96263.00
2018-09-17T06:51:33.606Z,96259.00
2018-09-17T06:54:04.275Z,96265.00
2018-09-17T06:56:35.000Z,96276.00
2018-09-17T06:59:05.587Z,96278.00
2018-09-17T07:01:36.449Z,96287.00
2018-09-17T07:04:06.844Z,96282.00
2018-09-17T07:06:37.446Z,96281.00
2018-09-17T07:09:10.395Z,96285.00
2018-09-17T07:11:41.034Z,96285.00
2018-09-17T07:14:11.373Z,96283.00
2018-09-17T07:16:41.889Z,96287.00
2018-09-17T07:19:12.173Z,96279.00
2018-09-17T07:21:43.083Z,96282.00
2018-09-17T07:24:14.270Z,96277.00
2018-09-17T07:26:44.591Z,96269.00
2018-09-17T07:29:14.939Z,96283.00
2018-09-17T07:31:45.206Z,96283.00
2018-09-17T07:34:15.613Z,96281.00
2018-09-17T07:36:45.906Z,96283.00
2018-09-17T07:39:16.255Z,96277.00
2018-09-17T07:41:46.522Z,96277.00
2018-09-17T07:44:16.810Z,96278.00
2018-09-17T07:46:47.129Z,96275.00
2018-09-17T07:49:17.412Z,96278.00
2018-09-17T07:51:47.705Z,96270.00
2018-09-17T07:54:18.041Z,96267.00
2018-09-17T07:56:48.370Z,96267.00
2018-09-17T07:59:18.708Z,96269.00
2018-09-17T08:01:49.026Z,96266.00
2018-09-17T08:04:19.374Z,96270.00
2018-09-17T08:06:49.824Z,96263.00
2018-09-17T08:09:20.131Z,96263.00
2018-09-17T08:11:50.706Z,96269.00
2018-09-17T08:14:21.062Z,96263.00
2018-09-17T08:16:51.384Z,96265.00
2018-09-17T08:19:21.811Z,96259.00
2018-09-17T08:21:52.152Z,96265.00
2018-09-17T08:24:22.448Z,96262.00
2018-09-17T08:26:53.002Z,96268.00
2018-09-17T08:29:23.313Z,96255.00
2018-09-17T08:31:53.685Z,96259.00
2018-09-17T08:34:30.247Z,96249.00
2018-09-17T08:37:01.102Z,96258.00
2018-09-17T08:39:31.477Z,96258.00
2018-09-17T08:42:02.265Z,96256.00
2018-09-17T08:44:32.590Z,96248.00
2018-09-17T08:47:02.886Z,96257.00
2018-09-17T08:49:33.267Z,96248.00
2018-09-17T08:52:03.589Z,96255.00
2018-09-17T08:54:38.018Z,96251.00
2018-09-17T08:57:14.449Z,96249.00
2018-09-17T08:59:47.184Z,96251.00
2018-09-17T09:02:21.577Z,96252.00
2018-09-17T09:04:54.266Z,96255.00
2018-09-17T09:07:36.766Z,96252.00
2018-09-17T09:10:13.528Z,96243.00
2018-09-17T09:12:48.395Z,96247.00
2018-09-17T09:15:19.417Z,96240.00
2018-09-17T09:17:49.827Z,96238.00
2018-09-17T09:20:20.261Z,96232.00
2018-09-17T09:22:50.767Z,96218.00
2018-09-17T09:25:21.263Z,96229.00
2018-09-17T09:27:52.079Z,96232.00
2018-09-17T09:30:22.873Z,96223.00
2018-09-17T09:32:53.818Z,96228.00
2018-09-17T09:35:24.420Z,96227.00
2018-09-17T09:37:54.731Z,96228.00
2018-09-17T09:40:25.048Z,96229.00
2018-09-17T09:42:55.323Z,96235.00
2018-09-17T09:45:25.814Z,96236.00
2018-09-17T09:47:56.090Z,96223.00
2018-09-17T09:50:26.736Z,96230.00
2018-09-17T09:52:57.280Z,96229.00
2018-09-17T09:55:27.649Z,96218.00
2018-09-17T09:57:59.092Z,96219.00
2018-09-17T10:00:35.084Z,96213.00
2018-09-17T10:03:10.640Z,96233.00
2018-09-17T10:05:41.337Z,96223.00
2018-09-17T10:08:11.694Z,96220.00
2018-09-17T10:10:48.321Z,96217.00
2018-09-17T10:13:39.840Z,96220.00
2018-09-17T10:16:18.357Z,96223.00
2018-09-17T10:18:55.109Z,96219.00
2018-09-17T10:21:28.338Z,96208.00
2018-09-17T10:24:33.344Z,96212.00
2018-09-17T10:27:08.924Z,96215.00
2018-09-17T10:29:40.206Z,96205.00
2018-09-17T10:32:13.586Z,96201.00
2018-09-17T10:34:46.655Z,96210.00
2018-09-17T10:37:19.126Z,96199.00
2018-09-17T10:39:50.358Z,96197.00
2018-09-17T10:42:25.338Z,96202.00
2018-09-17T10:44:56.888Z,96198.00
2018-09-17T10:47:28.363Z,96196.00
2018-09-17T10:50:04.529Z,96188.00
2018-09-17T10:52:36.365Z,96190.00
2018-09-17T10:55:08.098Z,96192.00
2018-09-17T10:57:39.110Z,96184.00
2018-09-17T11:00:09.906Z,96189.00
2018-09-17T11:02:40.350Z,96185.00
2018-09-17T11:05:12.352Z,96186.00
2018-09-17T11:07:46.595Z,96181.00
2018-09-17T11:10:19.189Z,96186.00
2018-09-17T11:12:50.392Z,96182.00
2018-09-17T11:15:49.317Z,96183.00
2018-09-17T11:18:21.203Z,96182.00
2018-09-17T11:20:52.388Z,96175.00
2018-09-17T11:23:22.722Z,96178.00
2018-09-17T11:25:53.563Z,96174.00
2018-09-17T11:28:24.399Z,96172.00
2018-09-17T11:31:04.884Z,96183.00
2018-09-17T11:33:40.463Z,96171.00
2018-09-17T11:36:13.717Z,96178.00
2018-09-17T11:39:00.810Z,96175.00
2018-09-17T11:41:40.362Z,96176.00
2018-09-17T11:44:12.971Z,96179.00
2018-09-17T11:46:43.887Z,96180.00
2018-09-17T11:49:15.495Z,96179.00
2018-09-17T11:51:47.792Z,96177.00
2018-09-17T11:54:19.593Z,96173.00
2018-09-17T11:56:52.833Z,96170.00
2018-09-17T11:59:24.209Z,96160.00
2018-09-17T12:02:01.169Z,96161.00
2018-09-17T12:04:32.213Z,96162.00
2018-09-17T12:07:08.239Z,96148.00
2018-09-17T12:09:38.874Z,96158.00
2018-09-17T12:12:09.624Z,96151.00
2018-09-17T12:14:40.207Z,96067.00
2018-09-17T12:17:10.514Z,96141.00
2018-09-17T12:19:41.170Z,96140.00
2018-09-17T12:22:11.686Z,96142.00
2018-09-17T12:24:42.114Z,96135.00
2018-09-17T12:27:13.536Z,96134.00
2018-09-17T12:29:43.950Z,96132.00
2018-09-17T12:32:14.341Z,96130.00
2018-09-17T12:34:45.031Z,96136.00
2018-09-17T12:37:17.954Z,96125.00
2018-09-17T12:39:49.596Z,96128.00
2018-09-17T12:42:24.628Z,96124.00
2018-09-17T12:44:56.317Z,96122.00
2018-09-17T12:47:27.462Z,96122.00
2018-09-17T12:49:58.134Z,96125.00
2018-09-17T12:52:29.179Z,96119.00
2018-09-17T12:55:01.545Z,96112.00
2018-09-17T12:57:33.028Z,96113.00
2018-09-17T13:00:03.905Z,96113.00
2018-09-17T13:02:40.166Z,96111.00
2018-09-17T13:05:10.695Z,96109.00
2018-09-17T13:07:41.413Z,96104.00
2018-09-17T13:10:15.884Z,96100.00
2018-09-17T13:12:48.449Z,96098.00
2018-09-17T13:15:18.891Z,96088.00
2018-09-17T13:17:50.125Z,96095.00
2018-09-17T13:20:20.510Z,96094.00
2018-09-17T13:22:51.429Z,96088.00
2018-09-17T13:25:21.812Z,96088.00
2018-09-17T13:27:52.380Z,96087.00
2018-09-17T13:30:22.733Z,96084.00
2018-09-17T13:32:53.336Z,96084.00
2018-09-17T13:35:23.868Z,96081.00
2018-09-17T13:37:54.934Z,96076.00
2018-09-17T13:40:28.771Z,96076.00
2018-09-17T13:42:59.390Z,96078.00
2018-09-17T13:45:29.963Z,96083.00
2018-09-17T13:48:05.132Z,96080.00
2018-09-17T13:50:39.140Z,96078.00
2018-09-17T13:53:10.643Z,96075.00
2018-09-17T13:55:41.067Z,96078.00
2018-09-17T13:58:11.302Z,96074.00
2018-09-17T14:00:43.723Z,96077.00
2018-09-17T14:03:14.713Z,96077.00
2018-09-17T14:05:45.042Z,96076.00
2018-09-17T14:08:16.129Z,96076.00
2018-09-17T14:10:46.519Z,96076.00
2018-09-17T14:13:16.975Z,96069.00
2018-09-17T14:15:52.429Z,96062.00
2018-09-17T14:18:23.114Z,96058.00
2018-09-17T14:20:53.538Z,96054.00
2018-09-17T14:23:24.704Z,96056.00
2018-09-17T14:26:00.460Z,96058.00
2018-09-17T14:28:35.308Z,96058.00
2018-09-17T14:31:06.050Z,96054.00
2018-09-17T14:33:38.449Z,96050.00
2018-09-17T14:36:08.974Z,96047.00
2018-09-17T14:38:39.331Z,96057.00
2018-09-17T14:41:10.022Z,96059.00
2018-09-17T14:43:40.521Z,96050.00
2018-09-17T14:46:10.845Z,96049.00
2018-09-17T14:48:41.463Z,96049.00
2018-09-17T14:51:11.827Z,96045.00
2018-09-17T14:53:43.021Z,96041.00
2018-09-17T14:56:13.448Z,96042.00
2018-09-17T14:58:44.138Z,96006.00
2018-09-17T15:01:15.892Z,96032.00
2018-09-17T15:06:28.106Z,96035.00
2018-09-17T15:08:58.664Z,96028.00
2018-09-17T15:11:29.248Z,96026.00
2018-09-17T15:13:59.836Z,96023.00
2018-09-17T15:16:34.200Z,96028.00
2018-09-17T15:19:05.081Z,96024.00
2018-09-17T15:21:36.096Z,96024.00
2018-09-17T15:24:07.265Z,96028.00
2018-09-17T15:26:38.790Z,96021.00
2018-09-17T15:29:09.138Z,96022.00
2018-09-17T15:31:40.194Z,96022.00
2018-09-17T15:34:11.641Z,96014.00
2018-09-17T15:36:55.768Z,96015.00
2018-09-17T15:39:27.641Z,96015.00
2018-09-17T15:41:59.552Z,96011.00
2018-09-17T15:44:39.076Z,96011.00
2018-09-17T15:47:14.976Z,96007.00
2018-09-17T15:49:50.041Z,95999.00
2018-09-17T15:52:22.024Z,96008.00
2018-09-17T15:54:56.442Z,96015.00
2018-09-17T15:57:32.171Z,96003.00
2018-09-17T16:00:13.304Z,95999.00
2018-09-17T16:02:53.178Z,96006.00
2018-09-17T16:05:25.743Z,96003.00
2018-09-17T16:07:59.078Z,95996.00
2018-09-17T16:10:30.440Z,95999.00
2018-09-17T16:13:01.146Z,95996.00
2018-09-17T16:15:31.570Z,95991.00
2018-09-17T16:18:02.270Z,95998.00
2018-09-17T16:20:32.676Z,96002.00
2018-09-17T16:23:03.170Z,96011.00
2018-09-17T16:25:33.734Z,96005.00
2018-09-17T16:28:04.071Z,96030.00
2018-09-17T16:30:35.018Z,95999.00
2018-09-17T16:33:06.843Z,95996.00
2018-09-17T16:35:39.318Z,95940.00
2018-09-17T16:38:12.135Z,96007.00
2018-09-17T16:40:43.242Z,96002.00
2018-09-17T16:43:13.716Z,96010.00
2018-09-17T16:45:44.857Z,96005.00
2018-09-17T16:48:15.868Z,95996.00
2018-09-17T16:50:47.546Z,95997.00
2018-09-17T16:53:18.566Z,95996.00
2018-09-17T16:55:51.430Z,95994.00
2018-09-17T16:58:22.338Z,95996.00
2018-09-17T17:00:53.418Z,95997.00
2018-09-17T17:03:24.088Z,95993.00
2018-09-17T17:05:56.656Z,95996.00
2018-09-17T17:08:27.235Z,95999.00
2018-09-17T17:10:57.780Z,95994.00
2018-09-17T17:13:28.286Z,95994.00
2018-09-17T17:16:13.788Z,95997.00
2018-09-17T17:18:44.385Z,95988.00
2018-09-17T17:21:15.255Z,95992.00
2018-09-17T17:23:47.065Z,95995.00
2018-09-17T17:26:17.391Z,95996.00
2018-09-17T17:28:47.977Z,95997.00
2018-09-17T17:31:18.968Z,95995.00
2018-09-17T17:33:50.112Z,95996.00
2018-09-17T17:36:20.478Z,95999.00
2018-09-17T17:38:51.060Z,96009.00
2018-09-17T17:41:21.474Z,96009.00
2018-09-17T17:43:52.269Z,96008.00
2018-09-17T17:46:22.821Z,96010.00
2018-09-17T17:48:53.245Z,96012.00
2018-09-17T17:51:23.633Z,96013.00
2018-09-17T17:53:54.037Z,95937.00
2018-09-17T17:56:25.296Z,96024.00
2018-09-17T17:59:02.517Z,96026.00
2018-09-17T18:01:36.090Z,96023.00
2018-09-17T18:04:07.202Z,96025.00
2018-09-17T18:06:38.418Z,96028.00
2018-09-17T18:09:12.541Z,96034.00
2018-09-17T18:11:43.567Z,96030.00
2018-09-17T18:14:20.447Z,96025.00
2018-09-17T18:16:54.351Z,96029.00
2018-09-17T18:19:25.100Z,96029.00
2018-09-17T18:21:56.435Z,96029.00
2018-09-17T18:24:29.907Z,96028.00
2018-09-17T18:27:00.447Z,96045.00
2018-09-17T18:29:30.646Z,96033.00
2018-09-17T18:32:10.270Z,96028.00
2018-09-17T18:34:43.546Z,96030.00
2018-09-17T18:37:33.901Z,96033.00
2018-09-17T18:40:04.377Z,96034.00
2018-09-17T18:42:35.273Z,96028.00
2018-09-17T18:45:06.130Z,96038.00
2018-09-17T18:47:36.455Z,96044.00
2018-09-17T18:50:07.343Z,96035.00
2018-09-17T18:52:38.027Z,96044.00
2018-09-17T18:55:09.122Z,96035.00
2018-09-17T18:57:39.600Z,96038.00
2018-09-17T19:00:10.836Z,96041.00
2018-09-17T19:02:41.202Z,96051.00
2018-09-17T19:05:11.610Z,96037.00
2018-09-17T19:07:42.143Z,96047.00
2018-09-17T19:10:12.486Z,96042.00
2018-09-17T19:12:43.101Z,96036.00
2018-09-17T19:15:18.795Z,96036.00
2018-09-17T19:17:50.073Z,96039.00
2018-09-17T19:20:20.537Z,96035.00
2018-09-17T19:22:56.048Z,96037.00
2018-09-17T19:25:27.434Z,96032.00
2018-09-17T19:28:03.008Z,96034.00
2018-09-17T19:30:33.579Z,96035.00
2018-09-17T19:33:03.910Z,96035.00
2018-09-17T19:35:35.166Z,96029.00
2018-09-17T19:38:11.048Z,96026.00
2018-09-17T19:40:41.937Z,96030.00
2018-09-17T19:43:12.273Z,96033.00
2018-09-17T19:45:49.474Z,96028.00
2018-09-17T19:48:20.016Z,96033.00
2018-09-17T19:50:56.048Z,96035.00
2018-09-17T19:53:26.364Z,96025.00
2018-09-17T19:55:57.564Z,96026.00
2018-09-17T19:58:33.370Z,96031.00
2018-09-17T20:01:04.597Z,96028.00
2018-09-17T20:03:38.077Z,96029.00
2018-09-17T20:06:15.021Z,95936.00
2018-09-17T20:08:46.826Z,96038.00
2018-09-17T20:11:36.027Z,96031.00
2018-09-17T20:14:08.194Z,96029.00
2018-09-17T20:16:39.214Z,96036.00
2018-09-17T20:19:10.531Z,96030.00
2018-09-17T20:21:41.381Z,95933.00
2018-09-17T20:24:12.347Z,96028.00
2018-09-17T20:26:43.186Z,96033.00
2018-09-17T20:29:15.891Z,96025.00
2018-09-17T20:31:47.573Z,96028.00
2018-09-17T20:34:19.488Z,96025.00
2018-09-17T20:36:50.842Z,96025.00
2018-09-17T20:39:22.383Z,96016.00
2018-09-17T20:41:54.440Z,96024.00
2018-09-17T20:44:25.471Z,96023.00
2018-09-17T20:46:55.930Z,96009.00
2018-09-17T20:49:30.817Z,96016.00
2018-09-17T20:52:02.334Z,96021.00
2018-09-17T20:54:34.954Z,96021.00
2018-09-17T20:57:06.005Z,96020.00
2018-09-17T20:59:37.356Z,96021.00
2018-09-17T21:02:08.399Z,96020.00
2018-09-17T21:04:38.961Z,96016.00
2018-09-17T21:07:10.315Z,96011.00
2018-09-17T21:09:41.066Z,96012.00
2018-09-17T21:12:11.482Z,96011.00
2018-09-17T21:14:42.050Z,96004.00
2018-09-17T21:17:13.081Z,95999.00
2018-09-17T21:19:44.928Z,95999.00
2018-09-17T21:22:18.084Z,96004.00
2018-09-17T21:24:49.448Z,96006.00
2018-09-17T21:27:19.752Z,95998.00
2018-09-17T21:29:50.066Z,96006.00
2018-09-17T21:32:22.402Z,95997.00
2018-09-17T21:34:54.416Z,96003.00
2018-09-17T21:37:34.794Z,96000.00
2018-09-17T21:40:08.488Z,96004.00
2018-09-17T21:42:41.246Z,95995.00
2018-09-17T21:45:11.982Z,95991.00
2018-09-17T21:47:43.327Z,95993.00
2018-09-17T21:50:13.974Z,95990.00
2018-09-17T21:52:45.384Z,95991.00
2018-09-17T21:55:16.126Z,95989.00
2018-09-17T21:57:46.624Z,95991.00
2018-09-17T22:00:16.910Z,95991.00
2018-09-17T22:02:47.606Z,95992.00
2018-09-17T22:05:17.915Z,95999.00
2018-09-17T22:07:49.241Z,95996.00
2018-09-17T22:10:45.910Z,95990.00
2018-09-17T22:13:18.447Z,95981.00
2018-09-17T22:15:49.670Z,95993.00
2018-09-17T22:18:34.038Z,95988.00
2018-09-17T22:21:05.901Z,95983.00
2018-09-17T22:23:37.023Z,95978.00
2018-09-17T22:26:08.039Z,95985.00
2018-09-17T22:28:39.256Z,95982.00
2018-09-17T22:31:17.494Z,95972.00
2018-09-17T22:33:53.910Z,95978.00
2018-09-17T22:36:29.323Z,95973.00
2018-09-17T22:39:06.622Z,95977.00
2018-09-17T22:41:39.423Z,95982.00
2018-09-17T22:44:10.483Z,95984.00
2018-09-17T22:46:42.290Z,95975.00
2018-09-17T22:49:17.144Z,95963.00
2018-09-17T22:51:51.269Z,95966.00
2018-09-17T22:54:22.748Z,95970.00
2018-09-17T22:56:56.808Z,95962.00
2018-09-17T22:59:32.398Z,95964.00
2018-09-17T23:05:18.475Z,95965.00
2018-09-17T23:07:51.243Z,95965.00
2018-09-17T23:10:26.566Z,95954.00
2018-09-17T23:12:59.830Z,95953.00
2018-09-17T23:15:30.345Z,95951.00
2018-09-17T23:18:02.523Z,95955.00
2018-09-17T23:20:36.677Z,95955.00
2018-09-17T23:23:15.138Z,95958.00
2018-09-17T23:25:46.191Z,95960.00
2018-09-17T23:28:16.534Z,95950.00
2018-09-17T23:30:47.464Z,95950.00
2018-09-17T23:33:17.782Z,95957.00
2018-09-17T23:35:48.115Z,95940.00
2018-09-17T23:38:18.827Z,95940.00
2018-09-17T23:40:49.370Z,95934.00
2018-09-17T23:43:20.200Z,95947.00
2018-09-17T23:45:51.034Z,95936.00
2018-09-17T23:48:21.352Z,95939.00
2018-09-17T23:50:51.816Z,95947.00
2018-09-17T23:53:22.150Z,95931.00
2018-09-17T23:55:52.442Z,95941.00
2018-09-17T23:58:22.948Z,95942.00
